Airfield :
LOGIN :

Register | Disclaimer

   EN    FR    IT 

 










Legend :    VFR   Marginal VFR   IFR   Intensive IFR   Very Intensive IFR
Visi :
Ceiling :
>= 8 km
>= 3000ft
5 to 8 km
1000 to 3000 ft
1500m to 5 km
500 to 1000 ft
800 to 1500m
200 to 500 ft
< 800m
< 200 ft
Symbols :   Thunderstorms  Fog  Heavy snow  Heavy precipitations  Wind > 20 kt
SIGMETs :     Misc.  Thunderstorms  Icing  Turbulence  Mountain Waves  Volcanic Ashes






- Airport Elevation : 63 ft
- IATA code : BZM


EHWO - Woensdrecht Airbase

CURRENT METAR :
  • 261355Z AUTO 15005KT 090V190 9999 FEW031 BKN069 OVC120 20/17 Q1012 BLU

EXPIRED METARs :
  • 261325Z AUTO 13006KT 080V160 9999 SCT062 BKN075 20/20 Q1012 BLU
  • 261255Z AUTO 10005KT 080V140 9999 BKN074 OVC084 20/20 Q1013 BLU
  • 261225Z AUTO 11005KT 070V180 9999 FEW056 BKN079 OVC090 19/19 Q1013 BLU
  • 261155Z AUTO 12005KT 080V180 9999 BKN081 OVC087 18/18 Q1013 BLU
  • 261125Z AUTO 13005KT 100V180 9999 BKN084 OVC089 18/18 Q1013 BLU
  • 261055Z AUTO 09006KT 060V140 9999 FEW057 SCT088 BKN098 17/17 Q1013 BLU
  • 261025Z AUTO 09004KT 070V160 9999 SCT056 SCT062 OVC085 16/15 Q1013 BLU
  • 261014Z AUTO 09005KT 060V130 9999 -DZRA FEW015CB OVC085 15/15 Q1014 BLU
  • 260940Z AUTO 11004KT 080V190 9999 -SHRA SCT015CB SCT065 OVC071 15/15 Q1014 WHT
  • 260939Z AUTO 12004KT 090V190 9999 -RA SCT015CB SCT066 BKN072 OVC077 15/15 Q1014 WHT
  • 260926Z AUTO 14005KT 090V180 9999 -SHRA SCT062 OVC069 16/15 Q1014 BLU
  • 260911Z AUTO 14004KT 090V180 9999 -RADZ FEW062 SCT069 BKN076 16/16 Q1014 BLU

Expired Forecast.



MET'MAP, your aeronautical weather chart ! - Copyright ORBIFLY December 2007 - Disclaimer

ORBIFLY MET'MAP TEAM :

Programming & Development : Alexandra Zaïnal
Original concept : Baudouin d'Aumeries
Technical & hardware support : Manuel Goepfert
Assistance : Marc-Olivier Méhu




SOURCES & CREDITS :

   NOAA